Time;durP1;ratioP1;P1;durP2;ratioP2;P2;SDS_P1;SDS_P2;PMS_P1;PMS_P2;Temp;Humidity;BMP_temperature;BMP_pressure;BME280_temperature;BME280_humidity;BME280_pressure;Samples;Min_cycle;Max_cycle;Signal;HPM_P1;HPM_P2
2021/09/09 00:00:46;;;;;;;13.23;12.10;;;15.90;99.90;;;;;;5019628;28;20665;-87
2021/09/09 00:03:13;;;;;;;12.43;11.53;;;15.90;99.90;;;;;;5016271;28;20636;-89
2021/09/09 00:17:04;;;;;;;12.90;11.80;;;15.90;99.90;;;;;;5008075;28;20676;-87
2021/09/09 00:22:37;;;;;;;13.57;12.47;;;15.90;99.90;;;;;;4999237;28;20620;-88
2021/09/09 00:25:36;;;;;;;13.17;12.13;;;15.90;99.90;;;;;;4997703;28;20625;-87
2021/09/09 00:31:42;;;;;;;14.00;12.67;;;15.90;99.90;;;;;;5017895;28;20643;-87
2021/09/09 00:37:14;;;;;;;15.03;13.60;;;15.80;99.90;;;;;;4977662;28;20642;-89
2021/09/09 00:39:40;;;;;;;14.07;12.70;;;15.80;99.90;;;;;;5023933;28;20631;-88
2021/09/09 00:42:09;;;;;;;12.70;11.57;;;15.70;99.90;;;;;;5012438;28;20705;-90
2021/09/09 00:44:36;;;;;;;12.57;11.30;;;15.70;99.90;;;;;;5009976;28;20641;-86
2021/09/09 00:47:06;;;;;;;14.60;13.20;;;15.70;99.90;;;;;;5003189;28;20688;-88
2021/09/09 00:49:37;;;;;;;12.80;11.80;;;15.70;99.90;;;;;;4995776;28;20748;-88
2021/09/09 00:52:05;;;;;;;13.97;12.97;;;15.70;99.90;;;;;;4999344;28;20651;-88
2021/09/09 00:54:32;;;;;;;14.83;13.70;;;15.70;99.90;;;;;;5000926;28;20634;-88
2021/09/09 00:56:59;;;;;;;13.47;12.47;;;15.70;99.90;;;;;;4995211;28;20631;-89
2021/09/09 00:59:27;;;;;;;13.60;12.67;;;15.60;99.90;;;;;;4991024;28;20651;-90
2021/09/09 01:01:54;;;;;;;13.60;12.30;;;15.60;99.90;;;;;;4987405;28;21199;-88
2021/09/09 01:04:23;;;;;;;14.37;13.17;;;15.50;99.90;;;;;;4989298;28;21006;-89
2021/09/09 01:06:50;;;;;;;13.30;12.20;;;15.50;99.90;;;;;;4991989;28;20755;-89
2021/09/09 01:09:17;;;;;;;14.73;13.70;;;15.50;99.90;;;;;;4992879;28;20628;-89
2021/09/09 01:11:44;;;;;;;14.27;13.17;;;15.50;99.90;;;;;;4988278;28;21089;-89
2021/09/09 01:14:13;;;;;;;14.27;13.20;;;15.50;99.90;;;;;;4995905;28;20610;-90
2021/09/09 01:16:41;;;;;;;15.33;14.10;;;15.40;99.90;;;;;;4989539;28;20667;-89
2021/09/09 01:19:09;;;;;;;14.03;13.00;;;15.40;99.90;;;;;;4989995;28;20720;-88
2021/09/09 01:21:38;;;;;;;14.33;13.20;;;15.30;99.90;;;;;;4980349;28;20675;-88
2021/09/09 01:24:09;;;;;;;13.80;12.60;;;15.30;99.90;;;;;;4987593;28;20639;-87
2021/09/09 01:26:49;;;;;;;14.97;13.67;;;15.30;99.90;;;;;;4984459;28;20672;-88
2021/09/09 01:29:16;;;;;;;14.90;13.80;;;15.20;99.90;;;;;;4994135;28;20951;-87
2021/09/09 01:31:43;;;;;;;15.10;13.90;;;15.20;99.90;;;;;;4992428;28;20612;-88
2021/09/09 01:34:10;;;;;;;14.97;13.70;;;15.30;99.90;;;;;;4991022;28;20626;-88
2021/09/09 01:36:37;;;;;;;14.37;13.27;;;15.20;99.90;;;;;;4991954;28;20640;-88
2021/09/09 01:39:04;;;;;;;14.43;13.30;;;15.20;99.90;;;;;;5000010;28;20625;-87
2021/09/09 01:41:32;;;;;;;14.40;13.30;;;15.20;99.90;;;;;;4991374;28;20651;-89
2021/09/09 01:43:59;;;;;;;15.10;13.90;;;15.20;99.90;;;;;;4990807;28;20607;-88
2021/09/09 01:46:27;;;;;;;14.63;13.53;;;15.20;99.90;;;;;;4996831;28;20699;-88
2021/09/09 01:48:55;;;;;;;16.70;15.30;;;15.20;99.90;;;;;;4983000;28;21696;-89
2021/09/09 01:51:22;;;;;;;16.20;14.80;;;15.30;99.90;;;;;;4992449;28;20645;-89
2021/09/09 01:53:49;;;;;;;16.50;15.30;;;15.20;99.90;;;;;;5002060;28;20888;-88
2021/09/09 01:56:17;;;;;;;15.02;13.70;;;15.20;99.90;;;;;;4677460;28;10001275;-88
2021/09/09 01:58:45;;;;;;;14.97;13.77;;;15.10;99.90;;;;;;4992434;28;20623;-89
2021/09/09 02:01:12;;;;;;;16.20;14.90;;;15.10;99.90;;;;;;4986528;28;20657;-88
2021/09/09 02:03:39;;;;;;;15.53;14.43;;;15.10;99.90;;;;;;4995756;28;21212;-88
2021/09/09 02:06:06;;;;;;;16.27;15.17;;;15.10;99.90;;;;;;4988603;28;20727;-88
2021/09/09 02:08:33;;;;;;;15.17;13.90;;;15.10;99.90;;;;;;4997103;28;20655;-88
2021/09/09 02:11:00;;;;;;;16.37;14.93;;;15.10;99.90;;;;;;4987718;28;20691;-88
2021/09/09 02:13:26;;;;;;;15.83;14.60;;;15.10;99.90;;;;;;4995192;28;20731;-87
2021/09/09 02:15:55;;;;;;;16.10;14.77;;;15.00;99.90;;;;;;4994066;28;20687;-89
2021/09/09 02:18:21;;;;;;;15.10;13.93;;;14.90;99.90;;;;;;4995972;28;20747;-88
2021/09/09 02:20:49;;;;;;;15.67;14.37;;;14.90;99.90;;;;;;4995130;28;20685;-88
2021/09/09 02:23:16;;;;;;;16.40;15.20;;;14.90;99.90;;;;;;5002329;28;20699;-88
2021/09/09 02:25:42;;;;;;;18.67;15.70;;;14.90;99.90;;;;;;4998359;28;20620;-88
2021/09/09 02:28:09;;;;;;;16.93;15.40;;;14.90;99.90;;;;;;4994201;28;20692;-88
2021/09/09 02:30:36;;;;;;;16.37;14.97;;;14.90;99.90;;;;;;4999808;28;20652;-88
2021/09/09 02:33:04;;;;;;;17.60;16.23;;;14.90;99.90;;;;;;4994880;28;20639;-88
2021/09/09 02:35:31;;;;;;;17.23;15.83;;;14.90;99.90;;;;;;4988834;28;20655;-88
2021/09/09 02:37:58;;;;;;;18.70;16.87;;;14.90;99.90;;;;;;4995153;28;20620;-89
2021/09/09 02:40:25;;;;;;;17.13;16.00;;;14.80;99.90;;;;;;4993591;28;20655;-88
2021/09/09 02:42:52;;;;;;;17.00;15.40;;;14.80;99.90;;;;;;4998622;28;20635;-87
2021/09/09 02:45:19;;;;;;;18.33;16.93;;;14.70;99.90;;;;;;4997308;28;20624;-88
2021/09/09 02:47:46;;;;;;;15.97;14.87;;;14.70;99.90;;;;;;4991340;28;21272;-88
2021/09/09 02:50:14;;;;;;;16.17;15.07;;;14.70;99.90;;;;;;4997161;28;20652;-88
2021/09/09 02:52:41;;;;;;;17.37;16.07;;;14.60;99.90;;;;;;4997273;28;20988;-90
2021/09/09 02:55:10;;;;;;;17.60;16.20;;;14.60;99.90;;;;;;4993065;28;20623;-87
2021/09/09 02:57:37;;;;;;;20.27;18.57;;;14.70;99.90;;;;;;4994614;28;20639;-89
2021/09/09 03:00:05;;;;;;;16.67;15.37;;;14.70;99.90;;;;;;4990840;28;20657;-89
2021/09/09 03:02:32;;;;;;;14.60;13.60;;;14.60;99.90;;;;;;4998508;28;20624;-90
2021/09/09 03:04:58;;;;;;;16.50;15.20;;;14.60;99.90;;;;;;4990599;28;21041;-90
2021/09/09 03:07:27;;;;;;;16.13;14.83;;;14.60;99.90;;;;;;4998239;28;20673;-88
2021/09/09 03:09:53;;;;;;;16.10;14.80;;;14.60;99.90;;;;;;4990453;28;20651;-88
2021/09/09 03:12:20;;;;;;;17.50;16.30;;;14.50;99.90;;;;;;4992892;28;20589;-89
2021/09/09 03:14:47;;;;;;;15.17;13.93;;;14.50;99.90;;;;;;4995814;28;20628;-88
2021/09/09 03:17:14;;;;;;;16.60;15.27;;;14.50;99.90;;;;;;4997854;28;20632;-88
2021/09/09 03:19:41;;;;;;;15.87;14.63;;;14.50;99.90;;;;;;4999898;28;20771;-88
2021/09/09 03:22:08;;;;;;;18.17;16.63;;;14.40;99.90;;;;;;4991459;28;21015;-87
2021/09/09 03:24:36;;;;;;;16.23;15.03;;;14.40;99.90;;;;;;4993674;28;20635;-87
2021/09/09 03:27:03;;;;;;;17.33;15.93;;;14.40;99.90;;;;;;4999810;28;20624;-88
2021/09/09 03:29:30;;;;;;;16.10;14.90;;;14.40;99.90;;;;;;4994951;28;20637;-88
2021/09/09 03:31:57;;;;;;;18.67;17.17;;;14.40;99.90;;;;;;4997952;28;20632;-88
2021/09/09 03:34:24;;;;;;;17.70;16.20;;;14.40;99.90;;;;;;4997420;28;20636;-88
2021/09/09 03:36:51;;;;;;;18.67;17.33;;;14.30;99.90;;;;;;4991921;28;20731;-87
2021/09/09 03:39:19;;;;;;;18.80;17.33;;;14.40;99.90;;;;;;4998117;28;20623;-88
2021/09/09 03:41:47;;;;;;;17.67;16.37;;;14.30;99.90;;;;;;4996111;28;22568;-87
2021/09/09 03:44:14;;;;;;;16.70;15.50;;;14.30;99.90;;;;;;4994388;28;20635;-89
2021/09/09 03:46:40;;;;;;;18.57;17.17;;;14.30;99.90;;;;;;4991080;28;21129;-88
2021/09/09 03:49:07;;;;;;;16.40;15.20;;;14.30;99.90;;;;;;4989539;28;20669;-87
2021/09/09 03:51:34;;;;;;;16.97;15.70;;;14.20;99.90;;;;;;4990547;28;20669;-88
2021/09/09 03:54:01;;;;;;;16.70;15.30;;;14.20;99.90;;;;;;4990907;28;21614;-89
2021/09/09 03:56:28;;;;;;;18.03;16.43;;;14.20;99.90;;;;;;4986345;28;20640;-87
2021/09/09 03:58:57;;;;;;;17.63;16.13;;;14.20;99.90;;;;;;4990738;28;20634;-88
2021/09/09 04:01:24;;;;;;;16.97;15.40;;;14.20;99.90;;;;;;4990178;28;20632;-88
2021/09/09 04:03:52;;;;;;;18.37;16.60;;;14.20;99.90;;;;;;4990746;28;20734;-88
2021/09/09 04:06:21;;;;;;;18.10;16.63;;;14.20;99.90;;;;;;4990203;28;20764;-88
2021/09/09 04:08:47;;;;;;;17.77;16.33;;;14.20;99.90;;;;;;4990132;28;20738;-89
2021/09/09 04:11:14;;;;;;;18.10;16.60;;;14.10;99.90;;;;;;4991798;28;20647;-89
2021/09/09 04:13:41;;;;;;;17.57;16.00;;;14.10;99.90;;;;;;4989700;28;21216;-89
2021/09/09 04:16:10;;;;;;;17.90;16.60;;;14.10;99.90;;;;;;4972513;28;20660;-88
2021/09/09 04:18:37;;;;;;;19.63;18.00;;;14.10;99.90;;;;;;4993109;28;20625;-88
2021/09/09 04:21:04;;;;;;;19.23;17.77;;;14.10;99.90;;;;;;4991776;28;20640;-89
2021/09/09 04:23:30;;;;;;;18.90;17.47;;;14.20;99.90;;;;;;4993942;28;20735;-89
2021/09/09 04:25:57;;;;;;;18.67;17.20;;;14.10;99.90;;;;;;4997383;28;20674;-89
2021/09/09 04:28:24;;;;;;;18.97;17.57;;;14.10;99.90;;;;;;4985639;28;20637;-88
2021/09/09 04:30:51;;;;;;;20.97;19.07;;;14.10;99.90;;;;;;4995812;28;20620;-88
2021/09/09 04:33:20;;;;;;;20.10;18.50;;;14.10;99.90;;;;;;4985399;28;20655;-87
2021/09/09 04:35:47;;;;;;;18.07;16.77;;;14.10;99.90;;;;;;4995808;28;20652;-89
2021/09/09 04:38:14;;;;;;;19.20;17.70;;;14.00;99.90;;;;;;4989390;28;20621;-88
2021/09/09 04:40:41;;;;;;;18.97;17.37;;;14.10;99.90;;;;;;4990608;28;20624;-87
2021/09/09 04:43:08;;;;;;;17.13;15.80;;;14.00;99.90;;;;;;4992721;28;20624;-87
2021/09/09 04:45:35;;;;;;;16.37;15.07;;;14.00;99.90;;;;;;4992937;28;20684;-88
2021/09/09 04:48:02;;;;;;;18.13;16.60;;;13.90;99.90;;;;;;4988485;28;20669;-90
2021/09/09 04:50:32;;;;;;;16.70;15.47;;;13.90;99.90;;;;;;4995499;28;20724;-88
2021/09/09 04:52:59;;;;;;;17.13;15.63;;;13.90;99.90;;;;;;4992295;28;20666;-90
2021/09/09 04:55:26;;;;;;;19.80;18.00;;;13.90;99.90;;;;;;4994122;28;20647;-89
2021/09/09 04:57:53;;;;;;;17.83;16.43;;;13.90;99.90;;;;;;5003254;28;20694;-89
2021/09/09 05:00:20;;;;;;;18.53;17.13;;;14.00;99.90;;;;;;4990989;28;21013;-89
2021/09/09 05:02:47;;;;;;;21.70;19.80;;;14.00;99.90;;;;;;4988832;28;20627;-89
2021/09/09 05:05:14;;;;;;;21.33;19.37;;;14.10;99.90;;;;;;4987951;28;20668;-89
2021/09/09 05:07:43;;;;;;;18.30;16.97;;;14.10;99.90;;;;;;4988122;28;21175;-89
2021/09/09 05:10:12;;;;;;;21.50;19.73;;;14.10;99.90;;;;;;4993311;28;20639;-89
2021/09/09 05:12:40;;;;;;;19.87;18.20;;;14.00;99.90;;;;;;4992995;28;20644;-89
2021/09/09 05:15:08;;;;;;;18.53;17.03;;;14.10;99.90;;;;;;4991807;28;20648;-89
2021/09/09 05:17:35;;;;;;;20.90;19.20;;;14.10;99.90;;;;;;4992827;28;20628;-90
2021/09/09 05:20:02;;;;;;;21.37;19.80;;;14.20;99.90;;;;;;4984266;28;21140;-89
2021/09/09 05:22:32;;;;;;;18.50;17.20;;;14.20;99.90;;;;;;4988603;28;20719;-89
2021/09/09 05:25:02;;;;;;;18.20;16.70;;;14.20;99.90;;;;;;4993378;28;20664;-89
2021/09/09 05:27:29;;;;;;;19.03;17.60;;;14.10;99.90;;;;;;4994149;28;20637;-89
2021/09/09 05:29:57;;;;;;;18.40;16.83;;;14.20;99.90;;;;;;4989377;28;20667;-89
2021/09/09 05:32:24;;;;;;;21.33;19.43;;;14.30;99.90;;;;;;4992334;28;20640;-89
2021/09/09 05:34:50;;;;;;;20.87;19.30;;;14.30;99.90;;;;;;4987051;28;20736;-88
2021/09/09 05:37:17;;;;;;;19.23;17.83;;;14.40;99.90;;;;;;4991780;28;20637;-88
2021/09/09 05:39:44;;;;;;;21.30;19.70;;;14.50;99.90;;;;;;4990243;28;20615;-90
2021/09/09 05:42:13;;;;;;;20.57;19.07;;;14.50;99.90;;;;;;4986577;28;21461;-88
2021/09/09 05:44:40;;;;;;;20.00;18.23;;;14.60;99.90;;;;;;4987487;28;20749;-90
2021/09/09 05:47:08;;;;;;;19.80;18.20;;;14.60;99.90;;;;;;4990929;28;20615;-88
2021/09/09 05:49:35;;;;;;;18.83;17.50;;;14.70;99.90;;;;;;4992766;28;20664;-88
2021/09/09 05:52:03;;;;;;;18.93;17.53;;;14.80;99.90;;;;;;4953970;28;1172529;-88
2021/09/09 05:54:31;;;;;;;18.87;17.43;;;14.90;99.90;;;;;;5001682;28;20235;-88
2021/09/09 05:56:58;;;;;;;18.13;16.80;;;14.90;99.90;;;;;;4995310;28;21225;-92
2021/09/09 05:59:26;;;;;;;17.17;15.77;;;14.90;99.90;;;;;;4993948;28;20633;-91
2021/09/09 06:01:53;;;;;;;17.00;15.80;;;15.10;99.90;;;;;;4999232;28;20629;-87
2021/09/09 06:04:21;;;;;;;15.57;14.30;;;15.20;99.90;;;;;;4995529;28;20695;-87
2021/09/09 06:06:49;;;;;;;15.93;14.53;;;15.30;99.90;;;;;;4999760;28;20606;-87
2021/09/09 06:09:16;;;;;;;16.93;15.60;;;15.40;99.90;;;;;;5001334;28;20710;-86
2021/09/09 06:11:43;;;;;;;17.00;15.40;;;15.60;99.90;;;;;;4996598;28;20643;-87
2021/09/09 06:14:10;;;;;;;16.77;15.60;;;15.70;99.90;;;;;;4995160;28;20632;-86
2021/09/09 06:16:39;;;;;;;17.47;16.20;;;15.80;99.90;;;;;;5007021;28;20662;-88
2021/09/09 06:19:05;;;;;;;18.17;16.70;;;15.90;99.90;;;;;;4987773;28;20646;-88
2021/09/09 06:21:32;;;;;;;17.50;16.00;;;16.10;99.90;;;;;;4990906;28;20628;-88
2021/09/09 06:24:00;;;;;;;16.47;15.07;;;16.20;99.90;;;;;;4992662;28;21053;-86
2021/09/09 06:26:27;;;;;;;17.10;15.60;;;16.40;99.90;;;;;;4995880;28;20686;-88
2021/09/09 06:28:54;;;;;;;16.97;15.57;;;16.40;99.90;;;;;;5004535;28;21214;-87
2021/09/09 06:31:21;;;;;;;16.70;15.20;;;16.50;99.90;;;;;;4987545;28;20716;-87
2021/09/09 06:33:51;;;;;;;17.07;15.47;;;16.50;99.90;;;;;;4991926;28;20619;-88
2021/09/09 06:36:18;;;;;;;17.20;15.53;;;16.50;99.90;;;;;;4999401;28;20635;-88
2021/09/09 06:38:45;;;;;;;15.87;14.50;;;16.60;99.90;;;;;;5004938;28;20648;-88
2021/09/09 06:41:12;;;;;;;14.43;13.33;;;16.80;99.90;;;;;;4996842;28;20629;-87
2021/09/09 06:43:39;;;;;;;15.70;14.30;;;16.80;99.90;;;;;;4998916;28;20613;-88
2021/09/09 06:46:06;;;;;;;14.20;13.00;;;17.10;99.90;;;;;;4986764;28;20633;-87
2021/09/09 06:48:33;;;;;;;15.10;13.90;;;17.20;99.90;;;;;;5002459;28;20716;-88
2021/09/09 06:51:02;;;;;;;15.00;13.60;;;17.40;99.90;;;;;;4986501;28;20617;-88
2021/09/09 06:53:29;;;;;;;15.77;13.57;;;17.50;99.90;;;;;;5006123;28;20636;-88
2021/09/09 06:55:55;;;;;;;14.23;12.70;;;17.90;99.90;;;;;;4996838;28;21035;-87
2021/09/09 06:58:22;;;;;;;16.70;12.60;;;18.20;99.90;;;;;;4998765;28;20651;-87
2021/09/09 07:00:50;;;;;;;12.93;11.73;;;18.40;99.90;;;;;;4994788;28;21032;-87
2021/09/09 07:05:58;;;;;;;13.53;10.33;;;18.50;99.90;;;;;;4997088;28;20724;-87
2021/09/09 07:08:26;;;;;;;14.70;10.80;;;18.60;99.90;;;;;;4996396;28;20747;-86
2021/09/09 07:10:53;;;;;;;10.47;9.43;;;18.70;99.90;;;;;;5002293;28;20954;-88
2021/09/09 07:13:21;;;;;;;10.73;9.63;;;18.90;99.90;;;;;;4988594;28;20648;-88
2021/09/09 07:15:48;;;;;;;10.87;9.77;;;19.20;99.90;;;;;;4986955;28;20628;-88
2021/09/09 07:18:15;;;;;;;10.00;9.10;;;19.10;99.90;;;;;;4990152;28;20763;-88
2021/09/09 07:20:42;;;;;;;10.63;9.73;;;19.20;99.90;;;;;;4990062;28;20633;-87
2021/09/09 07:23:09;;;;;;;11.13;10.00;;;19.50;99.90;;;;;;4990078;28;20672;-89
2021/09/09 07:25:37;;;;;;;12.60;11.37;;;19.60;99.90;;;;;;4994851;28;20655;-88
2021/09/09 07:28:04;;;;;;;9.47;8.47;;;19.80;99.90;;;;;;4992010;28;20667;-88
2021/09/09 07:30:32;;;;;;;11.97;9.80;;;19.90;99.90;;;;;;4990287;28;20667;-88
2021/09/09 07:32:59;;;;;;;9.47;8.67;;;19.70;99.90;;;;;;4990972;28;20895;-88
2021/09/09 07:35:26;;;;;;;11.60;9.23;;;19.70;99.90;;;;;;4986263;28;20656;-87
2021/09/09 07:37:54;;;;;;;10.87;9.60;;;19.70;99.90;;;;;;4994459;28;20668;-87
2021/09/09 07:40:23;;;;;;;10.30;9.33;;;19.90;99.90;;;;;;4984301;28;20631;-88
2021/09/09 07:42:51;;;;;;;11.80;9.77;;;20.00;99.90;;;;;;4990394;28;21321;-88
2021/09/09 07:45:19;;;;;;;10.43;9.43;;;20.10;99.90;;;;;;4988957;28;20629;-88
2021/09/09 07:47:46;;;;;;;14.13;12.93;;;20.40;99.90;;;;;;4992917;28;20671;-88
2021/09/09 07:50:13;;;;;;;10.57;9.63;;;20.90;99.90;;;;;;4992948;28;20678;-88
2021/09/09 07:52:41;;;;;;;12.93;10.43;;;21.00;99.90;;;;;;4994879;28;20647;-88
2021/09/09 07:55:10;;;;;;;10.23;9.27;;;21.40;99.90;;;;;;4989881;28;21204;-89
2021/09/09 07:57:37;;;;;;;9.73;8.80;;;21.60;99.90;;;;;;4993202;28;20677;-89
2021/09/09 08:00:07;;;;;;;11.67;9.90;;;21.70;99.90;;;;;;4991049;28;20625;-90
2021/09/09 08:02:34;;;;;;;12.93;11.30;;;22.10;99.90;;;;;;4990531;28;20619;-89
2021/09/09 08:05:03;;;;;;;12.53;10.20;;;21.90;99.90;;;;;;5000092;28;20752;-90
2021/09/09 08:07:30;;;;;;;14.60;9.97;;;21.70;99.90;;;;;;4997271;28;21240;-90
2021/09/09 08:09:57;;;;;;;13.50;9.60;;;21.80;99.90;;;;;;4986165;28;20669;-90
2021/09/09 08:12:25;;;;;;;11.13;9.00;;;22.20;99.90;;;;;;4996277;28;20640;-90
2021/09/09 08:14:52;;;;;;;11.40;10.37;;;22.80;99.90;;;;;;4982076;28;20706;-90
2021/09/09 08:17:20;;;;;;;8.77;7.87;;;22.80;99.90;;;;;;4988509;28;20742;-91
2021/09/09 08:19:47;;;;;;;10.37;9.03;;;22.80;99.90;;;;;;4990777;28;20621;-91
2021/09/09 08:22:14;;;;;;;10.93;9.97;;;22.70;99.90;;;;;;4997102;28;20634;-91
2021/09/09 08:24:41;;;;;;;10.33;9.33;;;22.80;99.90;;;;;;5000248;28;20723;-90
2021/09/09 08:27:08;;;;;;;11.30;9.10;;;22.50;99.90;;;;;;4985453;28;20733;-91
2021/09/09 08:29:34;;;;;;;13.20;8.20;;;22.80;99.90;;;;;;4989458;28;20664;-90
2021/09/09 08:32:01;;;;;;;9.00;8.03;;;22.90;99.90;;;;;;4997819;28;21193;-90
2021/09/09 08:34:29;;;;;;;9.07;8.27;;;23.00;99.90;;;;;;4989371;28;20735;-90
2021/09/09 08:36:56;;;;;;;11.70;9.60;;;23.00;99.90;;;;;;4988610;28;20733;-90
2021/09/09 08:39:26;;;;;;;10.63;8.70;;;22.90;99.90;;;;;;4982953;28;20660;-90
2021/09/09 08:41:53;;;;;;;9.00;7.93;;;23.00;99.90;;;;;;4979537;28;20699;-90
2021/09/09 08:44:20;;;;;;;11.83;8.73;;;23.20;99.90;;;;;;4991935;28;20644;-90
2021/09/09 08:46:47;;;;;;;9.60;8.70;;;23.30;99.90;;;;;;4992116;28;20638;-90
2021/09/09 08:49:15;;;;;;;8.77;7.97;;;23.30;99.90;;;;;;4989547;28;21089;-90
2021/09/09 08:51:43;;;;;;;8.73;7.93;;;23.70;99.90;;;;;;4991941;28;20767;-91
2021/09/09 08:54:10;;;;;;;10.63;9.07;;;24.20;99.90;;;;;;4993985;28;20621;-91
2021/09/09 08:56:37;;;;;;;7.80;7.07;;;24.20;99.90;;;;;;4998455;28;20908;-90
2021/09/09 08:59:04;;;;;;;9.20;8.40;;;24.40;99.90;;;;;;5011478;28;20645;-91
2021/09/09 09:01:31;;;;;;;10.27;8.47;;;24.60;99.90;;;;;;5008245;28;20663;-90
2021/09/09 09:04:01;;;;;;;10.20;9.20;;;24.90;99.90;;;;;;5009496;28;20652;-89
2021/09/09 09:06:32;;;;;;;8.53;7.83;;;24.50;99.90;;;;;;5009589;28;20653;-90
2021/09/09 09:09:03;;;;;;;7.77;7.17;;;24.70;99.90;;;;;;5001383;28;20656;-90
2021/09/09 09:11:32;;;;;;;7.73;7.03;;;24.60;99.90;;;;;;4993422;28;20628;-90
2021/09/09 09:13:59;;;;;;;8.67;7.87;;;24.50;99.90;;;;;;4992385;28;20608;-90
2021/09/09 09:16:28;;;;;;;7.60;7.00;;;24.90;99.90;;;;;;4992493;28;20620;-91
2021/09/09 09:18:58;;;;;;;8.27;7.50;;;25.10;99.90;;;;;;4990329;28;20726;-90
2021/09/09 09:21:28;;;;;;;9.13;8.20;;;25.70;99.90;;;;;;4991708;28;21193;-90
2021/09/09 09:24:02;;;;;;;7.17;6.60;;;25.70;99.90;;;;;;4987660;28;21079;-90
2021/09/09 09:26:29;;;;;;;6.93;6.33;;;25.80;99.90;;;;;;4990097;28;20663;-90
2021/09/09 09:29:00;;;;;;;6.87;6.27;;;25.70;99.90;;;;;;4989292;28;20651;-90
2021/09/09 09:31:29;;;;;;;7.17;6.47;;;26.00;99.90;;;;;;4996504;28;20623;-90
2021/09/09 09:33:58;;;;;;;7.10;6.50;;;25.90;99.90;;;;;;4994316;28;20613;-91
2021/09/09 09:36:27;;;;;;;8.40;7.73;;;25.70;99.90;;;;;;4989728;28;20727;-90
2021/09/09 09:38:56;;;;;;;8.00;6.37;;;25.30;99.90;;;;;;4988226;28;20658;-90
2021/09/09 09:41:27;;;;;;;6.30;5.90;;;25.30;99.90;;;;;;4990934;28;20664;-90
2021/09/09 09:44:15;;;;;;;7.83;7.23;;;25.60;99.90;;;;;;4998217;28;21163;-90
2021/09/09 09:46:42;;;;;;;7.50;6.60;;;25.40;99.90;;;;;;4984458;28;20686;-90
2021/09/09 09:49:25;;;;;;;9.40;7.80;;;25.70;99.90;;;;;;4989327;28;20740;-90
2021/09/09 09:51:54;;;;;;;7.57;6.87;;;25.70;99.90;;;;;;4987159;28;20651;-90
2021/09/09 09:54:24;;;;;;;7.50;6.90;;;25.50;99.90;;;;;;4984964;28;20647;-90
2021/09/09 09:56:52;;;;;;;10.03;7.50;;;25.60;99.90;;;;;;4989797;28;20634;-91
2021/09/09 09:59:20;;;;;;;7.43;6.77;;;25.40;99.90;;;;;;4994996;28;20762;-90
2021/09/09 10:01:48;;;;;;;7.70;7.00;;;25.40;99.90;;;;;;4991905;28;20652;-89
2021/09/09 10:04:18;;;;;;;7.70;7.00;;;25.60;99.90;;;;;;4995032;28;20648;-89
2021/09/09 10:06:52;;;;;;;9.33;7.30;;;25.50;99.90;;;;;;5002364;28;20612;-91
2021/09/09 10:09:19;;;;;;;7.97;7.17;;;25.50;99.90;;;;;;4992698;28;20754;-87
2021/09/09 10:11:47;;;;;;;6.77;6.17;;;25.40;99.90;;;;;;4987328;28;22289;-91
2021/09/09 10:14:21;;;;;;;7.33;6.67;;;25.50;99.90;;;;;;4981987;28;21023;-90
2021/09/09 10:16:49;;;;;;;6.50;6.00;;;25.50;99.90;;;;;;4983257;28;20723;-91
2021/09/09 10:19:24;;;;;;;6.97;6.30;;;25.50;99.90;;;;;;4987632;28;20661;-88
2021/09/09 10:21:53;;;;;;;7.80;6.67;;;25.40;99.90;;;;;;4987216;28;20662;-91
2021/09/09 10:24:28;;;;;;;8.53;6.40;;;25.50;99.90;;;;;;4984116;28;20747;-88
2021/09/09 10:27:16;;;;;;;7.17;6.57;;;25.70;99.90;;;;;;4980615;28;20640;-90
2021/09/09 10:29:50;;;;;;;7.43;6.70;;;25.80;99.90;;;;;;4986398;28;21306;-90
2021/09/09 10:32:51;;;;;;;8.03;6.67;;;26.00;99.90;;;;;;4997968;28;21035;-90
2021/09/09 10:35:39;;;;;;;7.67;6.90;;;25.70;99.90;;;;;;4982916;28;20647;-90
2021/09/09 10:38:27;;;;;;;7.53;6.93;;;25.70;99.90;;;;;;4992755;28;20660;-90
2021/09/09 10:40:54;;;;;;;7.63;6.93;;;25.80;99.90;;;;;;4996270;28;20982;-90
2021/09/09 10:43:46;;;;;;;8.20;6.97;;;26.20;99.90;;;;;;4995224;28;21198;-90
2021/09/09 10:46:16;;;;;;;7.10;6.50;;;26.60;99.90;;;;;;4992583;28;20803;-90
2021/09/09 10:48:45;;;;;;;6.73;6.23;;;26.40;99.90;;;;;;4985981;28;20671;-89
2021/09/09 10:51:17;;;;;;;7.17;6.57;;;26.90;99.90;;;;;;4984913;28;20679;-90
2021/09/09 10:53:52;;;;;;;8.57;6.87;;;27.70;99.40;;;;;;4985016;28;20620;-90
2021/09/09 10:56:23;;;;;;;7.57;6.90;;;27.70;98.20;;;;;;4983638;28;20638;-90
2021/09/09 10:59:10;;;;;;;10.07;6.60;;;27.90;97.50;;;;;;4997178;28;20663;-88
2021/09/09 11:01:41;;;;;;;6.20;5.60;;;28.10;95.70;;;;;;4988821;28;20627;-90
2021/09/09 11:04:16;;;;;;;6.23;5.63;;;27.70;96.80;;;;;;4983956;28;21007;-91
2021/09/09 11:06:43;;;;;;;8.27;6.17;;;27.80;96.00;;;;;;4986833;28;21274;-90
2021/09/09 11:09:14;;;;;;;6.50;5.90;;;28.20;96.00;;;;;;4988074;28;21091;-89
2021/09/09 11:11:46;;;;;;;6.90;5.63;;;28.40;95.90;;;;;;4990142;28;21469;-90
2021/09/09 11:14:13;;;;;;;6.30;5.37;;;29.00;94.50;;;;;;4993070;28;21665;-90
2021/09/09 11:16:42;;;;;;;6.23;5.73;;;29.00;92.40;;;;;;4995107;28;21254;-89
2021/09/09 11:19:10;;;;;;;6.10;5.60;;;28.60;93.70;;;;;;4993835;28;21309;-90
2021/09/09 11:21:40;;;;;;;6.73;5.50;;;28.70;92.50;;;;;;5000529;28;20768;-89
2021/09/09 11:24:12;;;;;;;5.80;5.30;;;28.80;93.00;;;;;;4993571;28;20632;-90
2021/09/09 11:26:41;;;;;;;5.83;4.77;;;29.50;92.70;;;;;;4993722;28;20624;-89
2021/09/09 11:29:08;;;;;;;5.83;5.23;;;29.60;91.00;;;;;;4999037;28;20744;-91
2021/09/09 11:31:47;;;;;;;5.93;5.50;;;29.40;91.20;;;;;;4990089;28;21187;-90
2021/09/09 11:34:21;;;;;;;6.20;5.60;;;29.20;91.00;;;;;;4988867;28;20619;-91
2021/09/09 11:36:52;;;;;;;6.10;5.60;;;29.30;91.90;;;;;;4992757;28;20632;-91
2021/09/09 11:39:22;;;;;;;7.63;6.30;;;29.30;91.20;;;;;;4986046;28;20761;-91
2021/09/09 11:41:52;;;;;;;8.17;5.60;;;29.80;90.10;;;;;;4995975;28;20626;-91
2021/09/09 11:44:28;;;;;;;6.07;5.67;;;30.60;89.10;;;;;;5001491;28;20723;-91
2021/09/09 11:46:58;;;;;;;5.97;5.57;;;29.70;89.50;;;;;;4989285;28;20631;-91
2021/09/09 11:49:26;;;;;;;5.70;5.20;;;30.00;90.00;;;;;;4990849;28;21058;-90
2021/09/09 11:51:54;;;;;;;6.50;5.90;;;30.20;90.20;;;;;;4995557;28;20663;-91
2021/09/09 11:54:24;;;;;;;6.63;6.13;;;30.60;87.80;;;;;;4994324;28;20615;-91
2021/09/09 11:56:52;;;;;;;6.70;5.90;;;31.00;86.40;;;;;;4994188;28;20624;-91
2021/09/09 11:59:20;;;;;;;6.23;5.73;;;31.30;83.50;;;;;;4991725;28;20677;-91
2021/09/09 12:01:50;;;;;;;6.73;6.20;;;30.60;84.60;;;;;;4986522;28;20624;-91
2021/09/09 12:04:19;;;;;;;6.60;6.10;;;30.10;87.80;;;;;;4996835;28;21043;-91
2021/09/09 12:06:48;;;;;;;6.50;5.93;;;30.00;86.60;;;;;;4988866;28;20805;-90
2021/09/09 12:09:24;;;;;;;5.30;4.90;;;30.20;85.90;;;;;;4991435;28;20783;-91
2021/09/09 12:12:03;;;;;;;6.63;5.13;;;29.90;87.10;;;;;;4994254;28;20648;-90
2021/09/09 12:14:30;;;;;;;7.23;5.30;;;30.60;87.20;;;;;;4985861;28;20640;-94
2021/09/09 12:17:16;;;;;;;5.97;5.43;;;30.60;85.00;;;;;;4988058;28;20636;-95
2021/09/09 12:19:57;;;;;;;6.47;5.80;;;30.40;83.30;;;;;;4995160;28;20674;-95
2021/09/09 12:22:42;;;;;;;5.43;5.03;;;30.60;83.50;;;;;;4994843;28;21155;-95
2021/09/09 12:25:26;;;;;;;6.40;5.10;;;31.30;81.70;;;;;;4988575;28;20606;-95
2021/09/09 12:28:01;;;;;;;14.47;13.57;;;31.70;79.00;;;;;;4990334;28;20648;-95
2021/09/09 12:30:31;;;;;;;15.03;13.90;;;30.90;79.00;;;;;;4993429;28;20627;-94
2021/09/09 12:32:58;;;;;;;14.07;13.37;;;31.00;76.80;;;;;;4997833;28;20624;-95
2021/09/09 12:35:27;;;;;;;14.10;13.50;;;30.80;76.50;;;;;;4992907;28;20708;-94
2021/09/09 12:38:05;;;;;;;13.83;13.13;;;31.00;75.70;;;;;;4992872;28;20663;-94
2021/09/09 12:40:40;;;;;;;17.87;16.77;;;31.50;74.40;;;;;;4990598;28;20716;-94
2021/09/09 12:43:27;;;;;;;5.50;5.10;;;32.70;71.70;;;;;;4990894;28;21080;-94
2021/09/09 12:45:55;;;;;;;5.97;5.47;;;32.10;70.40;;;;;;4992350;28;20627;-94
2021/09/09 12:48:22;;;;;;;6.03;5.57;;;31.00;73.70;;;;;;4985482;28;20675;-94
2021/09/09 12:50:56;;;;;;;6.10;5.70;;;30.10;74.10;;;;;;4981399;28;20666;-95
2021/09/09 12:53:27;;;;;;;5.80;5.40;;;30.00;76.10;;;;;;5000884;28;20747;-94
2021/09/09 12:56:01;;;;;;;6.70;5.60;;;29.70;77.70;;;;;;5008434;28;20620;-94
2021/09/09 12:58:28;;;;;;;6.20;5.43;;;29.40;78.20;;;;;;5008011;28;20682;-94
2021/09/09 13:00:58;;;;;;;5.77;5.03;;;29.50;76.90;;;;;;4996847;28;21179;-94
2021/09/09 13:03:26;;;;;;;5.50;4.80;;;30.40;75.50;;;;;;4988847;28;21008;-95
2021/09/09 13:05:57;;;;;;;5.63;5.13;;;31.20;73.00;;;;;;4984709;28;20633;-95